Terminal Aerodrome Forecast
Issued by NWS

Home | Current Version | Previous Version | Text Only | Print | Product List | Glossary On
Versions: 1 2 3 4 5 6 7 8 9 10 11 12 13 14
000
FTUS45 KREV 202333
TAFMMH
TAF
KMMH 202333Z 2100/2124 12009KT P6SM FEW080
     FM210100 27010KT P6SM SKC
     FM210500 VRB04KT P6SM SKC
     FM211800 12009G17KT P6SM FEW080 SCT110=

USA.gov is the U.S. government's official web portal to all federal, state and local government web resources and services.